Time;durP1;ratioP1;P1;durP2;ratioP2;P2;SDS_P1;SDS_P2;PMS_P1;PMS_P2;Temp;Humidity;BMP_temperature;BMP_pressure;BME280_temperature;BME280_humidity;BME280_pressure;Samples;Min_cycle;Max_cycle;Signal;HPM_P1;HPM_P2
2022/05/17 00:00:38;;;;;;;66.30;42.90;;;;;22.50;100914.00;;;;2069988;28;20221;-56
2022/05/17 00:01:38;;;;;;;86.83;51.40;;;;;22.50;100912.00;;;;2069891;28;20198;-55
2022/05/17 00:02:39;;;;;;;74.77;45.30;;;;;22.50;100913.00;;;;2072992;28;20280;-55
2022/05/17 00:03:39;;;;;;;63.97;41.50;;;;;22.50;100912.00;;;;2073773;28;20211;-55
2022/05/17 00:04:40;;;;;;;72.03;45.40;;;;;22.50;100917.00;;;;2071426;28;20216;-56
2022/05/17 00:05:41;;;;;;;75.30;47.70;;;;;22.50;100912.00;;;;2070328;28;20224;-55
2022/05/17 00:06:42;;;;;;;65.35;41.72;;;;;22.50;100913.00;;;;2067961;28;20224;-55
2022/05/17 00:07:42;;;;;;;67.43;42.20;;;;;22.50;100911.00;;;;2074970;28;20649;-55
2022/05/17 00:08:42;;;;;;;56.50;36.97;;;;;22.50;100907.00;;;;2079668;28;20208;-56
2022/05/17 00:09:43;;;;;;;58.77;37.80;;;;;22.50;100909.00;;;;2079195;28;20241;-55
2022/05/17 00:10:44;;;;;;;67.37;41.23;;;;;22.50;100916.00;;;;2074029;28;20220;-54
2022/05/17 00:11:45;;;;;;;61.93;38.60;;;;;22.50;100913.00;;;;2073060;28;20710;-55
2022/05/17 00:12:45;;;;;;;48.95;32.00;;;;;22.50;100909.00;;;;2069774;28;20218;-56
2022/05/17 00:13:45;;;;;;;59.07;38.43;;;;;22.50;100912.00;;;;2069084;28;20853;-56
2022/05/17 00:14:46;;;;;;;59.67;35.83;;;;;22.50;100913.00;;;;2078762;28;20206;-55
2022/05/17 00:15:48;;;;;;;54.47;35.10;;;;;22.50;100915.00;;;;2072432;28;20222;-56
2022/05/17 00:16:48;;;;;;;55.25;36.30;;;;;22.50;100906.00;;;;2070128;28;20206;-56
2022/05/17 00:17:49;;;;;;;49.90;33.50;;;;;22.50;100912.00;;;;2069396;28;20253;-54
2022/05/17 00:18:49;;;;;;;59.53;39.63;;;;;22.50;100903.00;;;;2069908;28;20252;-54
2022/05/17 00:19:49;;;;;;;56.63;36.23;;;;;22.50;100908.00;;;;2062365;28;20388;-55
2022/05/17 00:20:49;;;;;;;45.13;30.80;;;;;22.50;100910.00;;;;2061953;28;20215;-55
2022/05/17 00:21:50;;;;;;;54.70;35.63;;;;;22.50;100907.00;;;;2069578;28;20246;-55
2022/05/17 00:22:50;;;;;;;52.93;34.60;;;;;22.50;100902.00;;;;2069965;28;20218;-56
2022/05/17 00:23:51;;;;;;;45.00;30.37;;;;;22.50;100911.00;;;;2071773;28;20686;-54
2022/05/17 00:24:51;;;;;;;49.10;31.50;;;;;22.50;100901.00;;;;2078746;28;20218;-55
2022/05/17 00:25:51;;;;;;;43.33;30.43;;;;;22.50;100902.00;;;;2078174;28;20304;-56
2022/05/17 00:26:52;;;;;;;49.23;32.00;;;;;22.50;100906.00;;;;2077890;28;20210;-56
2022/05/17 00:27:53;;;;;;;42.58;28.45;;;;;22.50;100898.00;;;;2078040;28;20284;-54
2022/05/17 00:28:53;;;;;;;37.00;25.27;;;;;22.50;100897.00;;;;2078636;28;20218;-55
2022/05/17 00:29:53;;;;;;;42.37;29.50;;;;;22.50;100894.00;;;;2078775;28;20311;-54
2022/05/17 00:30:54;;;;;;;43.40;28.50;;;;;22.50;100905.00;;;;2074632;28;20221;-55
2022/05/17 00:31:54;;;;;;;41.60;28.70;;;;;22.50;100900.00;;;;2069618;28;20242;-54
2022/05/17 00:32:55;;;;;;;39.77;26.13;;;;;22.50;100909.00;;;;2069493;28;20634;-55
2022/05/17 00:33:56;;;;;;;36.97;25.83;;;;;22.50;100902.00;;;;2070657;28;20241;-55
2022/05/17 00:34:56;;;;;;;37.55;25.33;;;;;22.50;100904.00;;;;2070529;28;20269;-55
2022/05/17 00:35:57;;;;;;;42.10;28.23;;;;;22.50;100899.00;;;;2069865;28;20213;-56
2022/05/17 00:36:58;;;;;;;40.63;27.20;;;;;22.50;100903.00;;;;2069418;28;20264;-54
2022/05/17 00:37:58;;;;;;;39.47;25.60;;;;;22.50;100903.00;;;;2069603;28;20218;-55
2022/05/17 00:38:58;;;;;;;36.90;24.30;;;;;22.50;100899.00;;;;2069540;28;20210;-56
2022/05/17 00:39:59;;;;;;;34.23;22.90;;;;;22.50;100895.00;;;;2069287;28;20218;-54
2022/05/17 00:40:59;;;;;;;36.90;25.47;;;;;22.50;100894.00;;;;2069100;28;20293;-56
2022/05/17 00:41:59;;;;;;;38.07;27.40;;;;;22.50;100892.00;;;;2073291;28;20209;-56
2022/05/17 00:43:00;;;;;;;38.80;26.40;;;;;22.50;100890.00;;;;2078315;28;20205;-54
2022/05/17 00:45:19;;;;;;;35.60;22.45;;;;;22.50;100896.00;;;;2077354;28;20245;-54
2022/05/17 00:46:21;;;;;;;32.03;21.63;;;;;22.50;100894.00;;;;2077770;28;20244;-55
2022/05/17 00:47:32;;;;;;;37.90;24.65;;;;;22.50;100899.00;;;;2069016;28;20214;-56
2022/05/17 00:48:32;;;;;;;32.42;22.58;;;;;22.50;100908.00;;;;2070814;28;20237;-55
2022/05/17 00:49:48;;;;;;;33.33;23.37;;;;;22.40;100899.00;;;;2077545;28;20775;-55
2022/05/17 00:50:49;;;;;;;33.10;21.00;;;;;22.50;100897.00;;;;2076946;28;20217;-54
2022/05/17 00:51:49;;;;;;;35.97;23.67;;;;;22.50;100902.00;;;;2077319;28;20209;-54
2022/05/17 00:52:55;;;;;;;29.47;21.10;;;;;22.50;100898.00;;;;2054707;28;20219;-55
2022/05/17 00:54:02;;;;;;;33.08;21.40;;;;;22.40;100898.00;;;;2054121;28;20294;-55
2022/05/17 00:55:11;;;;;;;29.85;21.13;;;;;22.40;100898.00;;;;2062271;28;20243;-53
2022/05/17 00:56:14;;;;;;;32.47;22.05;;;;;22.40;100849.00;;;;2053309;28;20302;-55
2022/05/17 00:57:21;;;;;;;26.60;19.45;;;;;22.40;100896.00;;;;2054421;28;20245;-54
2022/05/17 00:58:35;;;;;;;27.48;19.35;;;;;22.50;100898.00;;;;2061656;28;20214;-55
2022/05/17 00:59:36;;;;;;;26.35;18.38;;;;;22.50;100892.00;;;;2068560;28;20224;-55
2022/05/17 01:00:39;;;;;;;25.90;16.93;;;;;22.50;100897.00;;;;2061233;28;20215;-56
2022/05/17 01:01:39;;;;;;;24.67;17.85;;;;;22.50;100896.00;;;;2061570;28;20773;-59
2022/05/17 01:02:41;;;;;;;24.50;18.07;;;;;22.40;100899.00;;;;2060757;28;20264;-60
2022/05/17 01:03:54;;;;;;;26.08;18.40;;;;;22.40;100896.00;;;;2069822;28;20356;-55
2022/05/17 01:04:54;;;;;;;25.83;17.83;;;;;22.40;100899.00;;;;2061481;28;20246;-56
2022/05/17 01:05:54;;;;;;;25.50;17.63;;;;;22.40;100891.00;;;;2052283;28;20234;-55
2022/05/17 01:07:00;;;;;;;22.80;15.67;;;;;22.40;100889.00;;;;2069687;28;20237;-55
2022/05/17 01:08:01;;;;;;;26.33;16.65;;;;;22.40;100898.00;;;;2069672;28;20225;-56
2022/05/17 01:09:01;;;;;;;26.43;17.87;;;;;22.40;100890.00;;;;2069815;28;20214;-55
2022/05/17 01:10:02;;;;;;;23.43;16.40;;;;;22.40;100894.00;;;;2070510;28;20457;-54
2022/05/17 01:11:03;;;;;;;23.77;15.97;;;;;22.30;100894.00;;;;2074413;28;20229;-55
2022/05/17 01:12:03;;;;;;;24.33;16.83;;;;;22.40;100890.00;;;;2067625;28;20218;-55
2022/05/17 01:15:42;;;;;;;24.48;16.75;;;;;22.40;100893.00;;;;2072463;28;20213;-59
2022/05/17 01:16:42;;;;;;;19.00;14.33;;;;;22.40;100893.00;;;;2072056;28;20210;-55
2022/05/17 01:17:42;;;;;;;22.80;15.63;;;;;22.40;100890.00;;;;2073166;28;20214;-55
2022/05/17 01:18:45;;;;;;;18.83;13.90;;;;;22.40;100896.00;;;;2070315;28;20229;-54
2022/05/17 01:19:45;;;;;;;19.88;13.85;;;;;22.50;100897.00;;;;2069674;28;20702;-54
2022/05/17 01:20:46;;;;;;;20.70;14.50;;;;;22.40;100892.00;;;;2069816;28;20211;-55
2022/05/17 01:21:46;;;;;;;19.30;14.20;;;;;22.40;100896.00;;;;2070348;28;20202;-55
2022/05/17 01:22:47;;;;;;;18.03;13.43;;;;;22.40;100895.00;;;;2070201;28;20686;-54
2022/05/17 01:23:47;;;;;;;16.20;12.27;;;;;22.40;100897.00;;;;2070628;28;20203;-55
2022/05/17 01:24:47;;;;;;;17.00;12.93;;;;;22.40;100889.00;;;;2077327;28;20275;-54
2022/05/17 01:25:48;;;;;;;17.23;13.07;;;;;22.50;100895.00;;;;2076922;28;20205;-54
2022/05/17 01:26:51;;;;;;;20.20;14.23;;;;;22.40;100890.00;;;;2077899;28;20252;-54
2022/05/17 01:27:54;;;;;;;18.05;13.27;;;;;22.40;100894.00;;;;2077948;28;20811;-54
2022/05/17 01:28:54;;;;;;;20.05;13.95;;;;;22.40;100910.00;;;;2068978;28;20953;-55
2022/05/17 01:29:55;;;;;;;15.90;12.20;;;;;22.40;100890.00;;;;2069791;28;20218;-54
2022/05/17 01:31:03;;;;;;;17.87;13.00;;;;;22.40;100885.00;;;;2077850;28;20697;-54
2022/05/17 01:32:04;;;;;;;15.65;11.70;;;;;22.40;100886.00;;;;2070728;28;20221;-54
2022/05/17 01:33:04;;;;;;;18.03;12.90;;;;;22.50;100889.00;;;;2077713;28;20253;-54
2022/05/17 01:34:06;;;;;;;16.33;11.57;;;;;22.50;100897.00;;;;2077940;28;20232;-52
2022/05/17 01:35:08;;;;;;;15.30;11.60;;;;;22.40;100894.00;;;;2075660;28;20237;-55
2022/05/17 01:36:10;;;;;;;15.38;11.32;;;;;22.50;100891.00;;;;2070133;28;20218;-55
2022/05/17 01:37:11;;;;;;;14.70;11.48;;;;;22.40;100893.00;;;;2071532;28;20707;-54
2022/05/17 01:38:12;;;;;;;15.75;11.25;;;;;22.40;100898.00;;;;2078722;28;20727;-54
2022/05/17 01:39:12;;;;;;;13.63;10.40;;;;;22.40;100897.00;;;;2071714;28;20249;-55
2022/05/17 01:40:12;;;;;;;13.83;10.33;;;;;22.40;100895.00;;;;2069646;28;20214;-54
2022/05/17 01:41:13;;;;;;;14.53;11.20;;;;;22.10;100888.00;;;;2070264;28;20218;-54
2022/05/17 01:42:13;;;;;;;13.10;10.77;;;;;22.40;100896.00;;;;2072615;28;20284;-55
2022/05/17 01:43:14;;;;;;;14.17;10.67;;;;;22.40;100897.00;;;;2077125;28;20685;-54
2022/05/17 01:44:14;;;;;;;12.87;9.70;;;;;22.40;100895.00;;;;2070731;28;20445;-54
2022/05/17 01:45:15;;;;;;;14.17;9.80;;;;;22.40;100893.00;;;;2070294;28;20328;-53
2022/05/17 01:46:15;;;;;;;14.00;9.37;;;;;22.40;100898.00;;;;2073287;28;20255;-53
2022/05/17 01:47:15;;;;;;;14.17;10.80;;;;;22.40;100896.00;;;;2076758;28;20252;-53
2022/05/17 01:48:16;;;;;;;11.03;9.10;;;;;22.40;100902.00;;;;2078571;28;20209;-54
2022/05/17 01:49:16;;;;;;;12.43;9.93;;;;;22.40;100893.00;;;;2065849;28;20905;-60
2022/05/17 01:50:16;;;;;;;12.60;10.33;;;;;22.40;100892.00;;;;2070320;28;20816;-58
2022/05/17 01:51:17;;;;;;;12.30;9.13;;;;;22.40;100893.00;;;;2069598;28;20604;-58
2022/05/17 01:52:17;;;;;;;11.40;8.93;;;;;22.40;100896.00;;;;2061702;28;20312;-53
2022/05/17 01:53:18;;;;;;;12.40;8.87;;;;;22.40;100893.00;;;;2069597;28;20218;-55
2022/05/17 01:54:18;;;;;;;11.13;9.20;;;;;22.40;100893.00;;;;2070219;28;20210;-53
2022/05/17 01:55:19;;;;;;;11.00;8.90;;;;;22.40;100891.00;;;;2069558;28;20214;-53
2022/05/17 01:56:19;;;;;;;9.73;7.73;;;;;22.40;100890.00;;;;2076967;28;20202;-54
2022/05/17 01:57:20;;;;;;;12.40;8.77;;;;;22.40;100892.00;;;;2077757;28;20206;-54
2022/05/17 01:58:20;;;;;;;10.23;8.50;;;;;22.40;100879.00;;;;2077732;28;20211;-52
2022/05/17 01:59:21;;;;;;;12.63;8.80;;;;;22.40;100885.00;;;;2078619;28;20210;-55
2022/05/17 02:00:23;;;;;;;11.80;8.40;;;;;22.40;100889.00;;;;2074843;28;20206;-56
2022/05/17 02:01:23;;;;;;;10.07;8.50;;;;;22.40;100888.00;;;;2069522;28;20210;-55
2022/05/17 02:02:23;;;;;;;10.53;7.47;;;;;22.40;100883.00;;;;2070566;28;20214;-55
2022/05/17 02:03:23;;;;;;;11.70;8.43;;;;;22.40;100886.00;;;;2073186;28;20946;-55
2022/05/17 02:04:24;;;;;;;10.43;7.87;;;;;22.40;100886.00;;;;2072355;28;20233;-55
2022/05/17 02:05:25;;;;;;;11.77;8.63;;;;;22.40;100880.00;;;;2078109;28;20220;-55
2022/05/17 02:06:25;;;;;;;9.33;7.43;;;;;22.40;100887.00;;;;2079022;28;20264;-55
2022/05/17 02:07:25;;;;;;;13.63;8.30;;;;;22.40;100881.00;;;;2073401;28;20202;-55
2022/05/17 02:08:26;;;;;;;9.27;7.00;;;;;22.40;100887.00;;;;2073836;28;20213;-54
2022/05/17 02:09:26;;;;;;;10.80;8.30;;;;;22.40;100888.00;;;;2075376;28;20578;-54
2022/05/17 02:10:27;;;;;;;9.87;7.77;;;;;22.40;100879.00;;;;2078158;28;20393;-54
2022/05/17 02:11:27;;;;;;;10.17;8.37;;;;;22.40;100884.00;;;;2076438;28;20618;-55
2022/05/17 02:12:27;;;;;;;9.70;6.93;;;;;22.40;100880.00;;;;2073391;28;20214;-55
2022/05/17 02:13:28;;;;;;;7.70;6.80;;;;;22.40;100885.00;;;;2075402;28;20215;-54
2022/05/17 02:14:28;;;;;;;9.93;6.77;;;;;22.40;100883.00;;;;2079993;28;20217;-54
2022/05/17 02:15:28;;;;;;;9.03;7.03;;;;;22.40;100885.00;;;;2080510;28;20209;-54
2022/05/17 02:16:29;;;;;;;11.43;7.37;;;;;22.40;100888.00;;;;2074280;28;20629;-54
2022/05/17 02:17:29;;;;;;;9.70;7.00;;;;;22.40;100882.00;;;;2071697;28;20210;-54
2022/05/17 02:18:29;;;;;;;6.83;6.13;;;;;22.40;100886.00;;;;2079073;28;20260;-55
2022/05/17 02:19:30;;;;;;;8.00;6.80;;;;;22.40;100881.00;;;;2078344;28;20264;-56
2022/05/17 02:20:30;;;;;;;7.97;6.20;;;;;22.40;100890.00;;;;2075251;28;20218;-54
2022/05/17 02:21:31;;;;;;;8.60;6.77;;;;;22.40;100888.00;;;;2075137;28;20260;-56
2022/05/17 02:22:31;;;;;;;9.30;6.83;;;;;22.40;100889.00;;;;2079863;28;20272;-55
2022/05/17 02:23:31;;;;;;;7.80;6.60;;;;;22.40;100884.00;;;;2079891;28;20301;-55
2022/05/17 02:24:32;;;;;;;8.80;6.97;;;;;22.40;100883.00;;;;2077871;28;20612;-54
2022/05/17 02:25:32;;;;;;;8.17;6.07;;;;;22.40;100886.00;;;;2073911;28;20570;-54
2022/05/17 02:26:32;;;;;;;8.27;6.50;;;;;22.40;100884.00;;;;2062692;28;20696;-54
2022/05/17 02:27:33;;;;;;;7.47;6.57;;;;;22.40;100886.00;;;;2070702;28;20708;-54
2022/05/17 02:28:33;;;;;;;6.13;5.53;;;;;22.30;100885.00;;;;2076243;28;20970;-55
2022/05/17 02:29:34;;;;;;;7.33;5.50;;;;;22.40;100890.00;;;;2070814;28;20232;-54
2022/05/17 02:30:35;;;;;;;7.90;6.77;;;;;22.40;100892.00;;;;2067345;28;20206;-54
2022/05/17 02:31:35;;;;;;;6.93;6.22;;;;;22.40;100896.00;;;;2054796;28;20656;-54
2022/05/17 02:32:36;;;;;;;6.20;5.60;;;;;22.40;100901.00;;;;2062873;28;20239;-53
2022/05/17 02:33:36;;;;;;;8.13;6.90;;;;;22.40;100898.00;;;;2073460;28;20268;-55
2022/05/17 02:34:36;;;;;;;7.43;5.80;;;;;22.40;100890.00;;;;2079048;28;20291;-55
2022/05/17 02:35:37;;;;;;;6.90;5.93;;;;;22.40;100889.00;;;;2071173;28;20206;-55
2022/05/17 02:36:37;;;;;;;7.20;5.83;;;;;22.40;100894.00;;;;2071231;28;20216;-54
2022/05/17 02:37:37;;;;;;;6.73;5.10;;;;;22.40;100890.00;;;;2072405;28;20202;-55
2022/05/17 02:38:38;;;;;;;7.10;5.90;;;;;22.40;100894.00;;;;2079809;28;20205;-55
2022/05/17 02:39:38;;;;;;;5.70;5.20;;;;;22.40;100899.00;;;;2079858;28;20236;-55
2022/05/17 02:40:38;;;;;;;5.53;5.00;;;;;22.40;100891.00;;;;2079595;28;20252;-54
2022/05/17 02:41:39;;;;;;;6.87;6.00;;;;;22.40;100895.00;;;;2079713;28;20210;-55
2022/05/17 02:42:39;;;;;;;7.17;5.67;;;;;22.40;100894.00;;;;2076696;28;20353;-54
2022/05/17 02:43:39;;;;;;;5.23;4.73;;;;;22.40;100895.00;;;;2071669;28;20304;-56
2022/05/17 02:44:40;;;;;;;6.77;5.37;;;;;22.40;100902.00;;;;2071697;28;20780;-56
2022/05/17 02:45:40;;;;;;;6.03;5.17;;;;;22.40;100895.00;;;;2070872;28;20597;-55
2022/05/17 02:46:40;;;;;;;6.80;5.30;;;;;22.40;100897.00;;;;2071685;28;20229;-54
2022/05/17 02:47:41;;;;;;;6.80;5.50;;;;;22.40;100898.00;;;;2078698;28;20210;-54
2022/05/17 02:48:41;;;;;;;5.30;4.80;;;;;22.40;100901.00;;;;2071254;28;20272;-55
2022/05/17 02:49:44;;;;;;;5.63;5.10;;;;;22.40;100905.00;;;;2071623;28;20218;-54
2022/05/17 02:50:45;;;;;;;5.38;4.75;;;;;22.40;100905.00;;;;2071420;28;20214;-56
2022/05/17 02:51:45;;;;;;;4.90;4.50;;;;;22.40;100915.00;;;;2075175;28;20581;-55
2022/05/17 02:52:46;;;;;;;6.90;5.03;;;;;22.40;100907.00;;;;2079718;28;20358;-54
2022/05/17 02:53:46;;;;;;;5.57;4.70;;;;;22.40;100910.00;;;;2079555;28;20709;-55
2022/05/17 02:54:46;;;;;;;5.43;4.90;;;;;22.40;100908.00;;;;2079568;28;20252;-55
2022/05/17 02:55:47;;;;;;;5.00;4.40;;;;;22.40;100908.00;;;;2076116;28;20221;-54
2022/05/17 02:56:47;;;;;;;5.10;4.23;;;;;22.40;100906.00;;;;2071625;28;20218;-53
2022/05/17 02:57:47;;;;;;;5.23;4.70;;;;;22.40;100908.00;;;;2079857;28;20252;-54
2022/05/17 02:58:48;;;;;;;5.10;4.50;;;;;22.40;100908.00;;;;2078108;28;20264;-54
2022/05/17 02:59:48;;;;;;;5.97;5.30;;;;;22.40;100912.00;;;;2079194;28;20256;-54
2022/05/17 03:00:48;;;;;;;4.60;4.20;;;;;22.40;100907.00;;;;2079588;28;20283;-54
2022/05/17 03:01:49;;;;;;;5.43;4.13;;;;;22.40;100912.00;;;;2071216;28;20245;-54
2022/05/17 03:02:49;;;;;;;6.20;3.87;;;;;22.40;100910.00;;;;2063449;28;20230;-55
2022/05/17 03:03:49;;;;;;;5.20;4.57;;;;;22.40;100913.00;;;;2076360;28;20213;-55
2022/05/17 03:04:50;;;;;;;4.80;4.27;;;;;22.40;100916.00;;;;2076019;28;20233;-55
2022/05/17 03:05:50;;;;;;;4.90;4.40;;;;;22.40;100916.00;;;;2078516;28;20352;-55
2022/05/17 03:06:50;;;;;;;5.40;4.40;;;;;22.40;100914.00;;;;2078837;28;20222;-55
2022/05/17 03:07:51;;;;;;;4.00;3.60;;;;;22.30;100920.00;;;;2078829;28;20213;-55
2022/05/17 03:08:51;;;;;;;9.50;4.30;;;;;22.40;100910.00;;;;2079431;28;20213;-55
2022/05/17 03:09:51;;;;;;;4.37;3.97;;;;;22.40;100913.00;;;;2067598;28;20319;-56
2022/05/17 03:10:52;;;;;;;4.33;3.93;;;;;22.40;100910.00;;;;2071353;28;20214;-54
2022/05/17 03:11:53;;;;;;;4.03;3.63;;;;;22.40;100917.00;;;;2071150;28;20276;-55
2022/05/17 03:12:53;;;;;;;4.27;3.87;;;;;22.40;100914.00;;;;2074122;28;20473;-56
2022/05/17 03:13:53;;;;;;;4.77;4.27;;;;;22.40;100919.00;;;;2079045;28;20223;-54
2022/05/17 03:14:54;;;;;;;4.73;4.33;;;;;22.30;100911.00;;;;2079240;28;20213;-53
2022/05/17 03:15:54;;;;;;;4.50;4.13;;;;;22.40;100918.00;;;;2078429;28;20232;-53
2022/05/17 03:16:54;;;;;;;4.67;4.20;;;;;22.30;100919.00;;;;2079158;28;20263;-54
2022/05/17 03:17:55;;;;;;;4.50;4.07;;;;;22.40;100917.00;;;;2078364;28;20221;-54
2022/05/17 03:18:55;;;;;;;4.87;4.10;;;;;22.40;100916.00;;;;2078820;28;20342;-54
2022/05/17 03:19:55;;;;;;;3.97;3.57;;;;;22.40;100913.00;;;;2079302;28;20629;-54
2022/05/17 03:20:56;;;;;;;3.83;3.40;;;;;22.40;100923.00;;;;2070505;28;20873;-54
2022/05/17 03:21:56;;;;;;;4.73;3.80;;;;;22.30;100920.00;;;;2070334;28;20575;-54
2022/05/17 03:22:56;;;;;;;4.43;3.60;;;;;22.40;100933.00;;;;2086336;28;20763;-54
2022/05/17 03:23:57;;;;;;;3.57;3.27;;;;;22.40;100917.00;;;;2079189;28;20709;-54
2022/05/17 03:24:57;;;;;;;4.10;3.70;;;;;22.40;100923.00;;;;2077883;28;20856;-54
2022/05/17 03:25:57;;;;;;;3.77;3.47;;;;;22.40;100917.00;;;;2077571;28;20222;-54
2022/05/17 03:26:58;;;;;;;4.67;4.27;;;;;22.40;100926.00;;;;2077667;28;20225;-55
2022/05/17 03:27:58;;;;;;;4.57;4.17;;;;;22.40;100922.00;;;;2070371;28;20246;-54
2022/05/17 03:28:59;;;;;;;4.10;3.70;;;;;22.40;100929.00;;;;2062150;28;20215;-54
2022/05/17 03:29:59;;;;;;;3.83;3.53;;;;;22.40;100934.00;;;;2070594;28;20218;-54
2022/05/17 03:30:59;;;;;;;5.33;3.33;;;;;22.30;100924.00;;;;2078536;28;20280;-54
2022/05/17 03:32:00;;;;;;;4.57;4.00;;;;;22.30;100930.00;;;;2071175;28;20238;-53
2022/05/17 03:33:00;;;;;;;4.10;3.70;;;;;22.30;100925.00;;;;2071116;28;20225;-55
2022/05/17 03:34:01;;;;;;;3.43;3.13;;;;;22.30;100924.00;;;;2074071;28;20956;-54
2022/05/17 03:35:02;;;;;;;4.23;3.83;;;;;22.40;100928.00;;;;2078464;28;20558;-54
2022/05/17 03:36:02;;;;;;;3.60;3.30;;;;;22.40;100927.00;;;;2077547;28;20699;-59
2022/05/17 03:37:02;;;;;;;3.73;3.33;;;;;22.40;100925.00;;;;2076201;28;20503;-57
2022/05/17 03:38:03;;;;;;;3.93;3.53;;;;;22.30;100930.00;;;;2070395;28;20305;-54
2022/05/17 03:39:03;;;;;;;3.47;3.17;;;;;22.40;100929.00;;;;2069615;28;20220;-54
2022/05/17 03:40:04;;;;;;;3.90;3.40;;;;;22.40;100926.00;;;;2070350;28;20277;-53
2022/05/17 03:41:05;;;;;;;3.22;2.78;;;;;22.40;100928.00;;;;2064582;28;20230;-56
2022/05/17 03:42:09;;;;;;;3.60;3.30;;;;;22.30;100921.00;;;;2077901;28;20570;-53
2022/05/17 03:43:09;;;;;;;3.38;3.08;;;;;22.30;100925.00;;;;2070130;28;20225;-54
2022/05/17 03:44:09;;;;;;;3.23;2.97;;;;;22.30;100919.00;;;;2078688;28;20693;-54
2022/05/17 03:45:10;;;;;;;3.60;3.30;;;;;22.30;100931.00;;;;2078484;28;20218;-53
2022/05/17 03:46:10;;;;;;;4.73;2.70;;;;;22.30;100916.00;;;;2077183;28;20609;-54
2022/05/17 03:47:11;;;;;;;2.77;2.47;;;;;22.40;100924.00;;;;2077776;28;20217;-54
2022/05/17 03:48:11;;;;;;;3.50;3.13;;;;;22.30;100925.00;;;;2070039;28;20933;-54
2022/05/17 03:49:12;;;;;;;3.37;3.07;;;;;22.30;100919.00;;;;2072259;28;20301;-54
2022/05/17 03:50:12;;;;;;;3.67;3.30;;;;;22.30;100927.00;;;;2063548;28;20221;-54
2022/05/17 03:51:17;;;;;;;3.00;2.80;;;;;22.30;100926.00;;;;2070451;28;20289;-55
2022/05/17 03:52:17;;;;;;;4.10;3.13;;;;;22.30;100935.00;;;;2078457;28;20221;-54
2022/05/17 03:53:18;;;;;;;3.93;2.90;;;;;22.30;100931.00;;;;2067613;28;20227;-54
2022/05/17 03:54:21;;;;;;;3.20;2.90;;;;;22.30;100929.00;;;;2070073;28;20229;-54
2022/05/17 03:55:22;;;;;;;3.60;2.72;;;;;22.30;100937.00;;;;2075577;28;20217;-54
2022/05/17 03:56:22;;;;;;;3.10;2.80;;;;;22.30;100932.00;;;;2076871;28;20713;-55
2022/05/17 03:57:23;;;;;;;2.90;2.60;;;;;22.30;100935.00;;;;2073969;28;20233;-54
2022/05/17 03:58:24;;;;;;;2.97;2.72;;;;;22.40;100937.00;;;;2075015;28;20221;-54
2022/05/17 03:59:24;;;;;;;3.23;2.93;;;;;22.40;100934.00;;;;2078351;28;20221;-54
2022/05/17 04:00:24;;;;;;;3.50;3.20;;;;;22.30;100930.00;;;;2072781;28;20276;-54
2022/05/17 04:01:25;;;;;;;3.60;3.30;;;;;22.30;100931.00;;;;2068979;28;20249;-53
2022/05/17 04:02:26;;;;;;;3.00;2.80;;;;;22.40;100925.00;;;;2069164;28;20233;-54
2022/05/17 04:03:26;;;;;;;3.37;2.90;;;;;22.40;100930.00;;;;2057862;28;20541;-54
2022/05/17 04:04:26;;;;;;;3.23;2.97;;;;;22.40;100933.00;;;;2060494;28;20302;-54
2022/05/17 04:05:27;;;;;;;3.07;2.87;;;;;22.40;100930.00;;;;2069332;28;20252;-53
2022/05/17 04:06:27;;;;;;;2.77;2.57;;;;;22.30;100936.00;;;;2070142;28;20228;-53
2022/05/17 04:07:27;;;;;;;2.60;2.40;;;;;22.30;100933.00;;;;2068728;28;20222;-54
2022/05/17 04:08:28;;;;;;;3.13;2.60;;;;;22.30;100928.00;;;;2070226;28;20890;-53
2022/05/17 04:09:29;;;;;;;3.53;3.10;;;;;22.30;100940.00;;;;2070565;28;20836;-54
2022/05/17 04:10:29;;;;;;;3.13;2.50;;;;;22.30;100932.00;;;;2070725;28;20445;-55
2022/05/17 04:11:30;;;;;;;3.30;2.80;;;;;22.30;100939.00;;;;2070521;28;20218;-54
2022/05/17 04:12:31;;;;;;;3.28;2.72;;;;;22.30;100939.00;;;;2054534;28;20219;-54
2022/05/17 04:13:32;;;;;;;2.93;2.63;;;;;22.30;100926.00;;;;2060484;28;20215;-54
2022/05/17 04:14:32;;;;;;;2.70;2.50;;;;;22.30;100932.00;;;;2071338;28;20302;-55
2022/05/17 04:15:32;;;;;;;2.87;2.60;;;;;22.30;100933.00;;;;2068937;28;20280;-55
2022/05/17 04:16:33;;;;;;;3.20;2.83;;;;;22.30;100937.00;;;;2069149;28;20210;-55
2022/05/17 04:17:34;;;;;;;3.33;3.07;;;;;22.30;100938.00;;;;2068891;28;20210;-54
2022/05/17 04:18:34;;;;;;;2.70;2.50;;;;;22.30;100930.00;;;;2069818;28;20965;-54
2022/05/17 04:19:35;;;;;;;2.93;2.63;;;;;22.30;100934.00;;;;2069814;28;20224;-54
2022/05/17 04:20:35;;;;;;;3.03;2.83;;;;;22.30;100935.00;;;;2069746;28;20308;-55
2022/05/17 04:21:36;;;;;;;2.80;2.60;;;;;22.30;100934.00;;;;2067158;28;20214;-55
2022/05/17 04:22:36;;;;;;;3.10;2.90;;;;;22.30;100939.00;;;;2061247;28;20262;-55
2022/05/17 04:23:37;;;;;;;4.10;3.23;;;;;22.30;100931.00;;;;2069225;28;20221;-54
2022/05/17 04:24:41;;;;;;;3.00;2.80;;;;;22.30;100938.00;;;;2069806;28;20218;-54
2022/05/17 04:25:41;;;;;;;3.38;2.92;;;;;22.30;100936.00;;;;2067875;28;20236;-56
2022/05/17 04:26:42;;;;;;;2.97;2.70;;;;;22.30;100942.00;;;;2069374;28;20222;-56
2022/05/17 04:27:43;;;;;;;3.10;2.80;;;;;22.30;100936.00;;;;2069453;28;20260;-54
2022/05/17 04:28:43;;;;;;;3.03;2.83;;;;;22.30;100937.00;;;;2069912;28;20222;-54
2022/05/17 04:29:43;;;;;;;3.40;3.10;;;;;22.30;100938.00;;;;2069830;28;20249;-54
2022/05/17 04:30:44;;;;;;;3.73;3.03;;;;;22.30;100940.00;;;;2069647;28;20751;-54
2022/05/17 04:31:45;;;;;;;3.10;2.87;;;;;22.30;100935.00;;;;2069846;28;20632;-54
2022/05/17 04:32:46;;;;;;;3.43;2.83;;;;;22.40;100941.00;;;;2069826;28;20802;-54
2022/05/17 04:33:46;;;;;;;2.50;2.30;;;;;22.30;100938.00;;;;2070188;28;20234;-54
2022/05/17 04:34:46;;;;;;;3.13;2.73;;;;;22.30;100941.00;;;;2071821;28;20712;-54
2022/05/17 04:35:47;;;;;;;3.33;3.07;;;;;22.30;100937.00;;;;2070158;28;20218;-55
2022/05/17 04:36:47;;;;;;;3.50;3.10;;;;;22.30;100936.00;;;;2069854;28;20717;-55
2022/05/17 04:37:47;;;;;;;3.40;3.10;;;;;22.30;100938.00;;;;2070129;28;20268;-55
2022/05/17 04:38:48;;;;;;;2.93;2.73;;;;;22.30;100937.00;;;;2070429;28;20226;-54
2022/05/17 04:39:48;;;;;;;4.00;2.80;;;;;22.30;100938.00;;;;2077911;28;20219;-54
2022/05/17 04:40:48;;;;;;;3.63;3.33;;;;;22.30;100938.00;;;;2071351;28;20686;-54
2022/05/17 04:41:49;;;;;;;3.30;3.00;;;;;22.30;100947.00;;;;2074760;28;20209;-54
2022/05/17 04:42:50;;;;;;;2.93;2.73;;;;;22.30;100950.00;;;;2073873;28;20225;-54
2022/05/17 04:43:50;;;;;;;3.00;2.70;;;;;22.30;100941.00;;;;2075617;28;20615;-54
2022/05/17 04:44:50;;;;;;;3.17;2.87;;;;;22.30;100939.00;;;;2070382;28;20523;-54
2022/05/17 04:45:51;;;;;;;4.67;3.53;;;;;22.30;100942.00;;;;2072071;28;20233;-54
2022/05/17 04:46:52;;;;;;;4.20;2.92;;;;;22.30;100945.00;;;;2072985;28;20222;-54
2022/05/17 04:47:52;;;;;;;2.40;2.17;;;;;22.30;100949.00;;;;2074362;28;20296;-54
2022/05/17 04:48:52;;;;;;;3.60;2.63;;;;;22.30;100949.00;;;;2069836;28;20226;-54
2022/05/17 04:49:53;;;;;;;2.73;2.53;;;;;22.30;100946.00;;;;2074315;28;20209;-54
2022/05/17 04:50:53;;;;;;;3.07;2.87;;;;;22.30;100952.00;;;;2062193;28;20249;-54
2022/05/17 04:51:53;;;;;;;4.93;2.77;;;;;22.30;100950.00;;;;2062517;28;20219;-54
2022/05/17 04:52:55;;;;;;;3.45;3.15;;;;;22.30;100953.00;;;;2070202;28;20234;-54
2022/05/17 04:53:55;;;;;;;3.50;3.20;;;;;22.30;100952.00;;;;2062259;28;20726;-55
2022/05/17 04:54:55;;;;;;;3.50;3.00;;;;;22.30;100952.00;;;;2064344;28;20235;-54
2022/05/17 04:55:56;;;;;;;3.70;3.23;;;;;22.30;100949.00;;;;2072240;28;20214;-54
2022/05/17 04:56:56;;;;;;;4.43;3.40;;;;;22.30;100956.00;;;;2074840;28;20240;-54
2022/05/17 04:57:56;;;;;;;3.20;2.90;;;;;22.30;100947.00;;;;2077954;28;20224;-54
2022/05/17 04:58:57;;;;;;;3.47;3.17;;;;;22.30;100953.00;;;;2073795;28;20272;-54
2022/05/17 04:59:59;;;;;;;3.17;2.83;;;;;22.30;100946.00;;;;2073785;28;20256;-54
2022/05/17 05:00:59;;;;;;;3.67;3.30;;;;;22.30;100953.00;;;;2070403;28;20741;-55
2022/05/17 05:01:59;;;;;;;3.57;3.27;;;;;22.30;100947.00;;;;2071033;28;20222;-56